Time;durP1;ratioP1;P1;durP2;ratioP2;P2;SDS_P1;SDS_P2;PMS_P1;PMS_P2;Temp;Humidity;BMP_temperature;BMP_pressure;BME280_temperature;BME280_humidity;BME280_pressure;Samples;Min_cycle;Max_cycle;Signal;HPM_P1;HPM_P2
2022/01/18 00:00:09;;;;;;;166.30;70.93;;;1.00;99.90;;;;;;5134579;27;20042;-64
2022/01/18 00:02:35;;;;;;;186.02;71.82;;;1.10;99.90;;;;;;5134611;27;20110;-64
2022/01/18 00:05:01;;;;;;;182.30;73.75;;;1.00;99.90;;;;;;5134612;27;20438;-64
2022/01/18 00:07:27;;;;;;;162.73;69.00;;;1.10;99.90;;;;;;5134308;27;20065;-64
2022/01/18 00:09:53;;;;;;;157.32;64.05;;;1.00;99.90;;;;;;5134301;27;20038;-64
2022/01/18 00:15:30;;;;;;;126.03;52.15;;;1.00;99.90;;;;;;5134232;27;20065;-64
2022/01/18 00:20:41;;;;;;;115.80;52.70;;;0.90;99.90;;;;;;5134039;27;20035;-64
2022/01/18 00:23:09;;;;;;;133.18;51.63;;;0.70;99.90;;;;;;5131350;27;20084;-64
2022/01/18 00:25:38;;;;;;;127.60;53.75;;;0.80;99.90;;;;;;5114333;27;20030;-64
2022/01/18 00:28:06;;;;;;;123.90;51.33;;;0.90;99.90;;;;;;5121192;27;20028;-64
2022/01/18 00:35:31;;;;;;;120.25;52.85;;;0.90;99.90;;;;;;5113426;28;20034;-64
2022/01/18 00:37:58;;;;;;;143.57;55.60;;;0.90;99.90;;;;;;5113126;28;20073;-64
2022/01/18 00:40:25;;;;;;;136.18;54.42;;;0.80;99.90;;;;;;5111950;28;20031;-64
2022/01/18 00:42:52;;;;;;;148.27;61.03;;;0.80;99.90;;;;;;5113186;28;20434;-64
2022/01/18 00:45:18;;;;;;;135.65;58.45;;;0.80;99.90;;;;;;5111316;28;20055;-64
2022/01/18 00:47:46;;;;;;;157.90;62.17;;;0.70;99.90;;;;;;5110351;28;20047;-64
2022/01/18 00:50:12;;;;;;;146.75;60.72;;;0.60;99.90;;;;;;5094850;28;20109;-64
2022/01/18 00:52:42;;;;;;;149.93;59.90;;;0.60;99.90;;;;;;5113110;28;20039;-64
2022/01/18 00:55:10;;;;;;;153.80;62.13;;;0.70;99.90;;;;;;5112494;28;20135;-64
2022/01/18 00:57:36;;;;;;;203.55;68.63;;;0.70;99.90;;;;;;5094347;28;20046;-64
2022/01/18 01:00:04;;;;;;;173.82;64.47;;;0.80;99.90;;;;;;5112117;28;20122;-64
2022/01/18 01:02:30;;;;;;;162.55;64.95;;;0.90;99.90;;;;;;5112167;28;20031;-64
2022/01/18 01:04:56;;;;;;;158.85;62.80;;;0.90;99.90;;;;;;5111508;28;20036;-64
2022/01/18 01:07:23;;;;;;;178.32;66.20;;;0.90;99.90;;;;;;5111712;28;20032;-64
2022/01/18 01:09:50;;;;;;;178.20;64.93;;;1.00;99.90;;;;;;5098478;28;20039;-65
2022/01/18 01:12:23;;;;;;;139.30;58.53;;;1.00;99.90;;;;;;5112156;28;20043;-64
2022/01/18 01:14:52;;;;;;;157.48;61.30;;;0.90;99.90;;;;;;5110667;28;20043;-65
2022/01/18 01:31:59;;;;;;;142.05;54.00;;;1.00;99.90;;;;;;5111320;28;20043;-64
2022/01/18 01:47:37;;;;;;;278.80;65.60;;;0.70;99.90;;;;;;5116675;28;20026;-65
2022/01/18 01:50:15;;;;;;;508.10;88.88;;;0.80;99.90;;;;;;5115514;28;20027;-65
2022/01/18 01:52:42;;;;;;;266.83;67.75;;;0.80;99.90;;;;;;5097873;28;20062;-65
2022/01/18 01:55:10;;;;;;;148.95;53.33;;;0.80;99.90;;;;;;5097910;28;20032;-65
2022/01/18 01:57:36;;;;;;;151.38;55.55;;;0.70;99.90;;;;;;5116222;28;20051;-66
2022/01/18 02:00:07;;;;;;;158.50;56.33;;;0.70;99.90;;;;;;5114835;28;20024;-64
2022/01/18 02:02:33;;;;;;;177.40;59.35;;;0.80;99.90;;;;;;5096706;28;20042;-64
2022/01/18 02:05:00;;;;;;;227.82;67.93;;;0.80;99.90;;;;;;5099554;28;20027;-64
2022/01/18 02:07:26;;;;;;;168.73;61.63;;;0.80;99.90;;;;;;5115246;28;20027;-64
2022/01/18 02:09:52;;;;;;;229.40;69.88;;;0.80;99.90;;;;;;5115271;28;20101;-64
2022/01/18 02:12:19;;;;;;;158.20;59.80;;;0.80;99.90;;;;;;5113765;28;20050;-64
2022/01/18 02:14:50;;;;;;;242.95;76.88;;;0.90;99.90;;;;;;5115426;28;20031;-63
2022/01/18 02:22:51;;;;;;;160.30;64.03;;;0.90;99.90;;;;;;5113804;28;20058;-64
2022/01/18 02:25:17;;;;;;;170.40;64.10;;;0.70;99.90;;;;;;5111930;28;20035;-64
2022/01/18 02:27:43;;;;;;;165.10;64.50;;;0.80;99.90;;;;;;5111155;28;20027;-65
2022/01/18 02:30:09;;;;;;;146.18;58.05;;;0.80;99.90;;;;;;5112968;28;20496;-64
2022/01/18 02:32:35;;;;;;;131.77;53.13;;;0.80;99.90;;;;;;5094672;28;20031;-64
2022/01/18 02:35:02;;;;;;;139.80;53.30;;;0.80;99.90;;;;;;5095118;28;20050;-65
2022/01/18 02:37:28;;;;;;;141.52;56.95;;;0.80;99.90;;;;;;5104781;28;20047;-64
2022/01/18 02:39:54;;;;;;;139.40;58.47;;;0.70;99.90;;;;;;5112198;28;20115;-64
2022/01/18 02:42:26;;;;;;;157.55;63.15;;;0.60;99.90;;;;;;5104096;28;20062;-65
2022/01/18 02:44:52;;;;;;;145.77;62.97;;;0.60;99.90;;;;;;5115207;28;20051;-65
2022/01/18 02:47:20;;;;;;;161.88;68.88;;;0.60;99.90;;;;;;5115598;27;20084;-65
2022/01/18 02:49:47;;;;;;;156.02;69.47;;;0.60;99.90;;;;;;5095455;28;20130;-65
2022/01/18 02:52:13;;;;;;;150.77;68.35;;;0.50;99.90;;;;;;5097428;28;20047;-65
2022/01/18 02:54:40;;;;;;;159.80;71.35;;;0.50;99.90;;;;;;5113253;27;20069;-64
2022/01/18 02:57:11;;;;;;;147.98;66.63;;;0.60;99.90;;;;;;5110562;28;20055;-64
2022/01/18 03:00:18;;;;;;;159.23;70.13;;;0.60;99.90;;;;;;5105698;28;20065;-65
2022/01/18 03:05:17;;;;;;;158.00;73.75;;;0.80;99.90;;;;;;5108892;28;20097;-65
2022/01/18 03:07:44;;;;;;;154.82;73.63;;;0.90;99.90;;;;;;5108678;28;20066;-65
2022/01/18 03:10:12;;;;;;;161.40;74.13;;;1.00;99.90;;;;;;5110836;27;20392;-65
2022/01/18 03:12:38;;;;;;;159.93;74.32;;;1.10;99.90;;;;;;5098039;28;20051;-66
2022/01/18 03:15:06;;;;;;;161.60;76.72;;;1.00;99.90;;;;;;5095161;28;20039;-68
2022/01/18 03:17:32;;;;;;;139.23;69.75;;;1.00;99.90;;;;;;5109394;27;20055;-65
2022/01/18 03:19:58;;;;;;;137.80;68.35;;;1.20;99.90;;;;;;5112960;27;20031;-65
2022/01/18 03:22:25;;;;;;;146.32;72.28;;;1.20;99.90;;;;;;5117714;27;20059;-66
2022/01/18 03:25:01;;;;;;;140.20;71.18;;;1.20;99.90;;;;;;5110844;28;20496;-64
2022/01/18 03:30:13;;;;;;;163.73;81.50;;;1.40;99.90;;;;;;5115167;27;20046;-66
2022/01/18 03:32:39;;;;;;;154.50;80.70;;;1.30;99.90;;;;;;5106710;27;20074;-66
2022/01/18 03:35:08;;;;;;;135.75;72.88;;;1.40;99.90;;;;;;5113754;27;20042;-65
2022/01/18 03:37:34;;;;;;;146.43;77.57;;;1.30;99.90;;;;;;5113827;28;20489;-65
2022/01/18 03:40:00;;;;;;;142.73;70.25;;;1.30;99.90;;;;;;5113868;28;20130;-67
2022/01/18 03:45:41;;;;;;;130.57;67.00;;;1.60;99.90;;;;;;5055386;28;20043;-65
2022/01/18 03:48:16;;;;;;;127.28;64.15;;;1.80;99.90;;;;;;5110660;27;20024;-66
2022/01/18 03:50:42;;;;;;;143.60;71.30;;;1.70;99.90;;;;;;5091395;28;20070;-66
2022/01/18 03:53:10;;;;;;;155.38;74.03;;;1.60;99.90;;;;;;5109396;27;20036;-65
2022/01/18 03:55:36;;;;;;;153.68;76.22;;;1.70;99.90;;;;;;5095509;27;20482;-65
2022/01/18 03:58:03;;;;;;;141.23;73.93;;;1.70;99.90;;;;;;5096241;28;20040;-64
2022/01/18 04:00:29;;;;;;;146.00;72.80;;;1.60;99.90;;;;;;5109922;28;20031;-66
2022/01/18 04:02:56;;;;;;;151.27;74.97;;;1.50;99.90;;;;;;5093609;28;20072;-67
2022/01/18 04:05:22;;;;;;;155.63;73.40;;;1.50;99.90;;;;;;5113725;27;20031;-66
2022/01/18 04:07:49;;;;;;;155.23;70.85;;;1.30;99.90;;;;;;5092738;28;20036;-66
2022/01/18 04:10:15;;;;;;;147.13;69.28;;;1.40;99.90;;;;;;5109845;27;20043;-66
2022/01/18 04:12:42;;;;;;;151.32;71.35;;;1.40;99.90;;;;;;5108842;28;20043;-66
2022/01/18 04:15:11;;;;;;;155.52;74.97;;;1.30;99.90;;;;;;5090800;28;20036;-66
2022/01/18 04:28:30;;;;;;;151.25;72.43;;;1.00;99.90;;;;;;5112219;28;20035;-65
2022/01/18 04:30:56;;;;;;;154.95;71.78;;;1.10;99.90;;;;;;5105833;28;20046;-66
2022/01/18 04:33:23;;;;;;;145.45;70.80;;;1.10;99.90;;;;;;5095674;28;20074;-68
2022/01/18 04:35:49;;;;;;;128.63;65.18;;;1.20;99.90;;;;;;5115939;27;20036;-65
2022/01/18 04:38:15;;;;;;;145.52;66.93;;;1.10;99.90;;;;;;5110908;28;20054;-66
2022/01/18 04:40:44;;;;;;;139.45;66.82;;;1.10;99.90;;;;;;5092996;28;20051;-66
2022/01/18 04:43:17;;;;;;;142.45;69.18;;;0.60;99.90;;;;;;5111282;28;20028;-64
2022/01/18 04:48:30;;;;;;;161.90;76.05;;;0.50;99.90;;;;;;5107242;28;20516;-68
2022/01/18 04:50:59;;;;;;;179.57;77.03;;;0.40;99.90;;;;;;5093260;28;20478;-68
2022/01/18 04:53:27;;;;;;;175.80;83.03;;;0.60;99.90;;;;;;5093144;28;20069;-69
2022/01/18 04:55:57;;;;;;;177.68;77.70;;;0.80;99.90;;;;;;5108661;28;20056;-67
2022/01/18 04:58:24;;;;;;;150.73;72.38;;;0.90;99.90;;;;;;5112624;27;20457;-67
2022/01/18 05:00:53;;;;;;;150.38;68.15;;;0.80;99.90;;;;;;5081695;28;20047;-65
2022/01/18 05:03:19;;;;;;;154.82;72.32;;;0.70;99.90;;;;;;5113534;28;20092;-65
2022/01/18 05:05:48;;;;;;;145.02;71.47;;;0.90;99.90;;;;;;5095447;28;20039;-66
2022/01/18 05:08:15;;;;;;;138.15;71.68;;;0.90;99.90;;;;;;5112602;27;20028;-66
2022/01/18 05:10:42;;;;;;;157.45;72.65;;;1.10;99.90;;;;;;5094730;28;20086;-65
2022/01/18 05:13:26;;;;;;;147.38;68.85;;;1.20;99.90;;;;;;5113648;27;20040;-65
2022/01/18 05:16:49;;;;;;;155.10;68.45;;;1.60;99.90;;;;;;5115983;28;20034;-65
2022/01/18 05:19:10;;;;;;;139.80;67.78;;;1.60;99.90;;;;;;5098964;28;20160;-64
2022/01/18 05:24:20;;;;;;;146.27;68.43;;;1.10;99.90;;;;;;5119052;27;20032;-65
2022/01/18 05:26:47;;;;;;;148.98;68.38;;;1.30;99.90;;;;;;5115403;27;20574;-68
2022/01/18 05:29:13;;;;;;;149.85;68.47;;;1.60;99.90;;;;;;5113751;28;20108;-68
2022/01/18 05:31:39;;;;;;;141.95;66.95;;;1.80;99.90;;;;;;5100409;28;20040;-65
2022/01/18 05:34:05;;;;;;;158.35;71.03;;;1.70;99.90;;;;;;5113034;27;20051;-64
2022/01/18 05:36:31;;;;;;;141.48;67.47;;;1.50;99.90;;;;;;5113879;28;20149;-66
2022/01/18 05:38:57;;;;;;;148.55;71.65;;;1.70;99.90;;;;;;5097779;28;20042;-64
2022/01/18 05:41:23;;;;;;;181.30;79.43;;;1.70;99.90;;;;;;5113726;28;20118;-64
2022/01/18 05:43:50;;;;;;;155.13;69.55;;;1.60;99.90;;;;;;5114311;28;20546;-67
2022/01/18 05:46:16;;;;;;;159.80;72.30;;;1.80;99.90;;;;;;5115639;28;20039;-65
2022/01/18 05:48:42;;;;;;;152.10;73.63;;;2.00;99.90;;;;;;5113851;28;20057;-66
2022/01/18 05:51:08;;;;;;;161.70;75.20;;;2.30;99.90;;;;;;5114725;28;20054;-64
2022/01/18 05:53:35;;;;;;;157.18;75.18;;;2.60;99.90;;;;;;5113592;28;20063;-65
2022/01/18 05:56:03;;;;;;;156.52;72.30;;;2.80;99.90;;;;;;5111783;28;20031;-66
2022/01/18 05:58:29;;;;;;;143.35;70.88;;;2.80;99.90;;;;;;5107176;28;20622;-67
2022/01/18 06:00:55;;;;;;;147.10;72.22;;;2.80;99.90;;;;;;5112714;28;20517;-66
2022/01/18 06:03:38;;;;;;;142.98;70.78;;;3.00;99.90;;;;;;5112965;28;20099;-65
2022/01/18 06:08:49;;;;;;;149.30;71.57;;;3.30;99.90;;;;;;5108362;28;20035;-65
2022/01/18 06:11:15;;;;;;;149.73;70.57;;;3.40;99.90;;;;;;5112078;28;20032;-66
2022/01/18 06:13:41;;;;;;;150.63;70.10;;;3.40;99.90;;;;;;5113897;28;20051;-68
2022/01/18 06:16:07;;;;;;;141.13;71.28;;;3.30;99.90;;;;;;5111402;28;20473;-66
2022/01/18 06:18:36;;;;;;;147.02;68.40;;;3.40;99.90;;;;;;5095723;28;20512;-67
2022/01/18 06:21:02;;;;;;;141.85;72.88;;;3.60;99.90;;;;;;5112988;28;20418;-65
2022/01/18 06:23:28;;;;;;;123.50;62.47;;;3.80;99.90;;;;;;5113074;28;20028;-65
2022/01/18 06:25:55;;;;;;;125.60;66.00;;;3.60;99.90;;;;;;5097171;28;20054;-66
2022/01/18 06:28:21;;;;;;;122.22;65.80;;;3.80;99.90;;;;;;5112537;28;20128;-64
2022/01/18 06:30:47;;;;;;;117.07;63.92;;;4.10;99.90;;;;;;5114103;28;20442;-64
2022/01/18 06:33:13;;;;;;;96.38;52.65;;;4.30;99.90;;;;;;5111486;28;20054;-66
2022/01/18 06:35:39;;;;;;;100.88;58.75;;;4.30;99.90;;;;;;5112120;28;20059;-66
2022/01/18 06:38:08;;;;;;;106.65;59.00;;;4.20;99.90;;;;;;5112108;28;20040;-65
2022/01/18 06:40:34;;;;;;;107.72;57.47;;;4.20;99.90;;;;;;5095603;28;20035;-65
2022/01/18 06:43:00;;;;;;;101.63;60.38;;;4.30;99.90;;;;;;5111798;28;20118;-65
2022/01/18 06:45:26;;;;;;;99.28;57.67;;;4.60;99.90;;;;;;5093350;28;21422;-65
2022/01/18 06:47:52;;;;;;;102.88;54.85;;;4.80;99.90;;;;;;5093384;28;20036;-66
2022/01/18 06:50:18;;;;;;;102.00;56.30;;;5.00;99.90;;;;;;5090503;28;20047;-65
2022/01/18 06:52:44;;;;;;;94.43;53.45;;;4.90;99.90;;;;;;5110279;28;20474;-66
2022/01/18 06:55:12;;;;;;;98.20;53.30;;;5.20;99.90;;;;;;5097661;28;20050;-65
2022/01/18 06:57:38;;;;;;;103.40;57.03;;;5.40;99.90;;;;;;5092297;28;20081;-65
2022/01/18 07:00:05;;;;;;;105.80;54.65;;;5.40;99.90;;;;;;5092271;28;20046;-66
2022/01/18 07:02:31;;;;;;;106.18;54.35;;;5.40;99.90;;;;;;5110591;28;20472;-67
2022/01/18 07:04:57;;;;;;;105.10;57.22;;;5.40;99.90;;;;;;5110486;28;20047;-66
2022/01/18 07:07:24;;;;;;;108.68;59.92;;;5.50;99.90;;;;;;5096897;28;20496;-66
2022/01/18 07:09:50;;;;;;;105.25;56.40;;;5.30;99.90;;;;;;5110665;28;20059;-65
2022/01/18 07:12:35;;;;;;;99.95;56.72;;;5.80;99.90;;;;;;5094348;28;20033;-65
2022/01/18 07:15:03;;;;;;;103.03;58.28;;;6.00;99.90;;;;;;5111313;28;20031;-69
2022/01/18 07:17:29;;;;;;;97.35;54.65;;;5.90;99.90;;;;;;5096473;28;20615;-66
2022/01/18 07:19:55;;;;;;;111.55;58.38;;;5.80;99.90;;;;;;5094921;28;20047;-66
2022/01/18 07:22:21;;;;;;;107.75;62.63;;;5.90;99.90;;;;;;5110473;28;20109;-67
2022/01/18 07:24:49;;;;;;;117.13;63.70;;;5.90;99.90;;;;;;5111850;28;20032;-67
2022/01/18 07:27:15;;;;;;;135.57;67.65;;;6.00;99.90;;;;;;5096331;28;20362;-65
2022/01/18 07:29:43;;;;;;;130.80;67.57;;;6.20;99.90;;;;;;5112870;28;20058;-66
2022/01/18 07:32:12;;;;;;;130.77;67.63;;;6.20;99.90;;;;;;5112574;28;20031;-65
2022/01/18 07:34:51;;;;;;;127.50;69.78;;;6.10;99.90;;;;;;5111579;28;20027;-65
2022/01/18 07:37:18;;;;;;;126.43;67.65;;;6.30;99.90;;;;;;5110263;28;20096;-66
2022/01/18 07:39:44;;;;;;;127.28;68.78;;;6.20;99.90;;;;;;5088933;28;20046;-65
2022/01/18 07:42:10;;;;;;;114.90;60.63;;;6.60;99.90;;;;;;5092931;28;20114;-66
2022/01/18 07:44:36;;;;;;;119.15;61.85;;;6.40;99.90;;;;;;5110535;28;20066;-66
2022/01/18 07:47:02;;;;;;;108.13;58.17;;;6.40;99.90;;;;;;5091718;28;20031;-67
2022/01/18 07:49:29;;;;;;;110.43;60.80;;;6.50;99.90;;;;;;5109776;28;20032;-66
2022/01/18 07:51:55;;;;;;;108.85;56.72;;;6.60;99.90;;;;;;5110786;28;20046;-67
2022/01/18 07:54:21;;;;;;;113.95;58.03;;;6.70;99.90;;;;;;5092435;28;20463;-67
2022/01/18 07:56:47;;;;;;;98.88;53.67;;;6.60;99.90;;;;;;5112822;28;20107;-66
2022/01/18 07:59:13;;;;;;;97.82;51.55;;;6.50;99.90;;;;;;5112113;28;20016;-67
2022/01/18 08:01:42;;;;;;;97.55;51.22;;;6.40;99.90;;;;;;5111418;28;20074;-67
2022/01/18 08:04:08;;;;;;;91.45;50.10;;;6.50;99.90;;;;;;5108970;28;20141;-65
2022/01/18 08:06:34;;;;;;;96.97;53.08;;;6.50;99.90;;;;;;5095582;28;20050;-65
2022/01/18 08:09:00;;;;;;;97.43;54.22;;;6.60;99.90;;;;;;5111502;28;20038;-66
2022/01/18 08:11:26;;;;;;;103.78;54.25;;;6.80;99.90;;;;;;5103685;28;20028;-66
2022/01/18 08:13:52;;;;;;;102.18;55.20;;;6.80;99.90;;;;;;5096757;28;20366;-67
2022/01/18 08:18:57;;;;;;;111.07;57.75;;;6.60;99.90;;;;;;5110367;28;20076;-67
2022/01/18 08:21:23;;;;;;;106.40;55.28;;;6.70;99.90;;;;;;5110651;28;20576;-68
2022/01/18 08:27:18;;;;;;;110.45;53.78;;;7.20;99.90;;;;;;5102495;28;20016;-67
2022/01/18 08:29:44;;;;;;;108.03;53.50;;;7.10;99.90;;;;;;5111071;28;20508;-66
2022/01/18 08:32:10;;;;;;;109.18;52.58;;;6.90;99.90;;;;;;5109812;28;20039;-67
2022/01/18 08:34:36;;;;;;;110.18;53.63;;;6.80;99.90;;;;;;5108414;28;20059;-67
2022/01/18 08:37:42;;;;;;;106.22;53.83;;;6.90;99.90;;;;;;5086535;28;20067;-67
2022/01/18 08:40:09;;;;;;;116.18;58.58;;;7.00;99.90;;;;;;5086250;28;20505;-66
2022/01/18 08:42:35;;;;;;;104.60;54.80;;;6.90;99.90;;;;;;5089267;28;20040;-67
2022/01/18 08:45:02;;;;;;;108.30;50.70;;;6.70;99.90;;;;;;5088814;28;20059;-67
2022/01/18 08:47:28;;;;;;;104.72;54.60;;;6.80;99.90;;;;;;5087736;28;20035;-66
2022/01/18 08:49:54;;;;;;;107.47;56.80;;;6.90;99.90;;;;;;5088834;28;20032;-67
2022/01/18 08:52:21;;;;;;;113.80;58.63;;;7.00;99.90;;;;;;5089203;28;20039;-66
2022/01/18 08:54:48;;;;;;;106.70;53.38;;;7.00;99.90;;;;;;5092127;28;20055;-65
2022/01/18 08:57:14;;;;;;;103.10;53.17;;;7.00;99.90;;;;;;5090618;28;20494;-67
2022/01/18 08:59:42;;;;;;;90.60;48.78;;;7.10;99.90;;;;;;5091713;28;20044;-68
2022/01/18 09:02:11;;;;;;;100.65;52.83;;;7.10;99.90;;;;;;5091407;28;20059;-67
2022/01/18 09:04:38;;;;;;;91.88;50.70;;;7.00;99.90;;;;;;5090632;28;20023;-67
2022/01/18 09:07:08;;;;;;;101.75;56.38;;;7.10;99.90;;;;;;5090299;28;20111;-65
2022/01/18 09:09:41;;;;;;;97.63;52.95;;;7.10;99.90;;;;;;5088326;28;20109;-66
2022/01/18 09:12:10;;;;;;;92.65;48.17;;;7.20;99.90;;;;;;5089112;28;20028;-66
2022/01/18 09:14:37;;;;;;;92.50;50.30;;;7.40;99.90;;;;;;5089484;28;20160;-66
2022/01/18 09:17:04;;;;;;;93.35;50.40;;;7.50;99.90;;;;;;5104326;28;20032;-66
2022/01/18 09:19:30;;;;;;;100.90;48.33;;;7.60;99.90;;;;;;5089199;28;20032;-65
2022/01/18 09:21:57;;;;;;;85.85;44.47;;;7.80;99.90;;;;;;5095632;28;20076;-67
2022/01/18 09:24:24;;;;;;;65.82;32.33;;;8.00;99.90;;;;;;5094663;28;20436;-66
2022/01/18 09:26:50;;;;;;;57.10;33.60;;;8.00;99.90;;;;;;5091723;28;20107;-65
2022/01/18 09:29:16;;;;;;;61.08;29.10;;;7.90;99.90;;;;;;5091449;28;20020;-64
2022/01/18 09:31:42;;;;;;;62.40;34.13;;;8.00;99.90;;;;;;5090365;28;20048;-66
2022/01/18 09:34:08;;;;;;;68.28;34.38;;;8.00;99.90;;;;;;5089302;28;20028;-67
2022/01/18 09:36:34;;;;;;;68.15;34.13;;;8.20;99.90;;;;;;5091379;28;20035;-64
2022/01/18 09:39:01;;;;;;;69.88;36.63;;;8.20;99.90;;;;;;5088641;28;20484;-64
2022/01/18 09:41:30;;;;;;;70.88;37.30;;;8.10;99.90;;;;;;5078783;28;20048;-66
2022/01/18 09:43:56;;;;;;;71.85;36.53;;;8.00;99.90;;;;;;5083063;28;20060;-64
2022/01/18 09:46:26;;;;;;;65.45;35.92;;;8.10;99.90;;;;;;5088875;28;20034;-66
2022/01/18 09:48:56;;;;;;;71.43;36.55;;;8.10;99.90;;;;;;5094029;28;20052;-65
2022/01/18 09:51:24;;;;;;;68.32;36.60;;;7.90;99.90;;;;;;5095585;28;20034;-67
2022/01/18 09:53:51;;;;;;;60.47;32.30;;;7.90;99.90;;;;;;5092477;28;20097;-67
2022/01/18 09:56:17;;;;;;;67.43;33.25;;;7.80;99.90;;;;;;5073124;28;20036;-65
2022/01/18 09:58:44;;;;;;;62.17;30.70;;;7.90;99.90;;;;;;5087785;28;20455;-65
2022/01/18 10:01:11;;;;;;;57.50;31.40;;;8.00;99.90;;;;;;5090435;28;20044;-66
2022/01/18 10:03:41;;;;;;;56.83;27.73;;;8.10;99.90;;;;;;5091681;28;20054;-66
2022/01/18 10:06:09;;;;;;;63.40;31.95;;;8.10;99.90;;;;;;5097849;28;20032;-66
2022/01/18 10:08:38;;;;;;;59.15;30.45;;;8.10;99.90;;;;;;5089142;28;20043;-65
2022/01/18 10:11:14;;;;;;;45.95;25.20;;;8.10;99.90;;;;;;5097099;28;20032;-66
2022/01/18 10:13:41;;;;;;;42.25;19.92;;;8.10;99.90;;;;;;5100004;28;20036;-66
2022/01/18 10:16:09;;;;;;;46.03;23.02;;;7.90;99.90;;;;;;5085091;28;20165;-64
2022/01/18 10:18:49;;;;;;;45.67;25.23;;;7.60;99.90;;;;;;5099103;28;20033;-65
2022/01/18 10:21:29;;;;;;;47.65;24.55;;;7.60;99.90;;;;;;5092648;28;20028;-66
2022/01/18 10:24:16;;;;;;;39.58;20.27;;;7.60;99.90;;;;;;5093024;28;20035;-65
2022/01/18 10:26:47;;;;;;;42.97;22.67;;;7.60;99.90;;;;;;5089774;28;20033;-66
2022/01/18 10:29:14;;;;;;;44.90;23.73;;;7.60;99.90;;;;;;5080188;28;20089;-66
2022/01/18 10:34:29;;;;;;;51.03;24.00;;;7.60;99.90;;;;;;5094067;28;20028;-66
2022/01/18 10:36:59;;;;;;;49.63;25.50;;;7.70;99.90;;;;;;5094611;28;20032;-66
2022/01/18 10:39:31;;;;;;;72.60;33.20;;;7.60;99.90;;;;;;5107765;28;20035;-66
2022/01/18 10:41:57;;;;;;;74.72;34.95;;;7.50;99.90;;;;;;5106240;28;20473;-65
2022/01/18 10:44:24;;;;;;;73.35;34.30;;;7.50;99.90;;;;;;5113632;28;20039;-65
2022/01/18 10:46:56;;;;;;;62.40;33.35;;;7.40;99.90;;;;;;5097330;28;20032;-65
2022/01/18 10:49:33;;;;;;;58.38;29.25;;;7.40;99.90;;;;;;5093522;28;20035;-65
2022/01/18 10:52:09;;;;;;;62.55;28.95;;;7.50;99.90;;;;;;5113208;28;20054;-66
2022/01/18 10:54:54;;;;;;;62.05;28.77;;;7.40;99.90;;;;;;5102483;28;20046;-64
2022/01/18 10:57:26;;;;;;;62.50;27.75;;;7.40;99.90;;;;;;5115460;27;20040;-66
2022/01/18 11:00:07;;;;;;;54.92;26.13;;;7.30;99.90;;;;;;5099597;28;20040;-66
2022/01/18 11:02:38;;;;;;;56.95;25.13;;;7.20;99.90;;;;;;5113920;28;20032;-66
2022/01/18 11:05:30;;;;;;;53.40;27.27;;;7.30;99.90;;;;;;5114480;28;20520;-65
2022/01/18 11:08:00;;;;;;;51.15;26.23;;;7.20;99.90;;;;;;5114137;27;20042;-67
2022/01/18 11:10:32;;;;;;;52.58;25.10;;;7.20;99.90;;;;;;5096543;28;20064;-66
2022/01/18 11:13:17;;;;;;;46.60;23.55;;;7.20;99.90;;;;;;5110106;28;20088;-65
2022/01/18 11:15:50;;;;;;;47.80;22.77;;;7.20;99.90;;;;;;5106676;28;20473;-66
2022/01/18 11:18:25;;;;;;;46.30;23.55;;;7.10;99.90;;;;;;5111501;28;20032;-66
2022/01/18 11:20:52;;;;;;;52.92;23.23;;;7.10;99.90;;;;;;5114473;28;20024;-65
2022/01/18 11:23:22;;;;;;;55.72;25.98;;;7.10;99.90;;;;;;5114256;28;20028;-67
2022/01/18 11:25:52;;;;;;;50.25;22.67;;;7.10;99.90;;;;;;5095590;28;20165;-66
2022/01/18 11:28:18;;;;;;;50.08;22.00;;;7.10;99.90;;;;;;5113606;28;20074;-64
2022/01/18 11:30:47;;;;;;;44.70;22.83;;;7.00;99.90;;;;;;5111900;28;20124;-66
2022/01/18 11:33:15;;;;;;;52.63;23.17;;;7.00;99.90;;;;;;5110348;28;20468;-68
2022/01/18 11:36:11;;;;;;;55.45;22.98;;;7.00;99.90;;;;;;5092818;28;20457;-68
2022/01/18 11:38:41;;;;;;;45.50;23.15;;;7.10;99.90;;;;;;5098795;28;20048;-66
2022/01/18 11:41:19;;;;;;;48.63;23.65;;;7.00;99.90;;;;;;5110758;28;20480;-67
2022/01/18 11:43:46;;;;;;;47.00;24.23;;;7.10;99.90;;;;;;5111516;28;20107;-65
2022/01/18 11:46:34;;;;;;;55.28;25.73;;;7.10;99.90;;;;;;5093189;28;20386;-66
2022/01/18 11:49:09;;;;;;;58.83;26.40;;;7.10;99.90;;;;;;5113020;28;20027;-66
2022/01/18 11:51:48;;;;;;;54.97;26.35;;;7.10;99.90;;;;;;5110097;28;20400;-66
2022/01/18 11:57:27;;;;;;;46.00;24.65;;;6.80;99.90;;;;;;5112093;28;20034;-66
2022/01/18 12:00:05;;;;;;;57.78;26.33;;;6.70;99.90;;;;;;5092231;28;20052;-66
2022/01/18 12:02:39;;;;;;;59.28;25.02;;;6.80;99.90;;;;;;5113528;28;20051;-66
2022/01/18 12:05:14;;;;;;;51.92;25.80;;;6.70;99.90;;;;;;5107696;28;20404;-65
2022/01/18 12:07:42;;;;;;;54.88;24.98;;;6.60;99.90;;;;;;5098890;28;20442;-66
2022/01/18 12:10:27;;;;;;;58.42;26.45;;;6.60;99.90;;;;;;5089378;28;20071;-67
2022/01/18 12:12:55;;;;;;;55.30;27.20;;;6.60;99.90;;;;;;5109197;28;20114;-65
2022/01/18 12:15:22;;;;;;;51.55;26.17;;;6.50;99.90;;;;;;5094619;28;20080;-65
2022/01/18 12:17:53;;;;;;;62.53;30.83;;;6.40;99.90;;;;;;5110480;28;20027;-66
2022/01/18 12:20:40;;;;;;;62.50;28.00;;;6.30;99.90;;;;;;5086883;28;20485;-65
2022/01/18 12:23:09;;;;;;;67.03;27.27;;;6.30;99.90;;;;;;5103390;28;20089;-66
2022/01/18 12:26:13;;;;;;;58.13;26.35;;;6.30;99.90;;;;;;5110946;28;20109;-66
2022/01/18 12:34:28;;;;;;;59.40;28.35;;;6.00;99.90;;;;;;5113307;27;20051;-66
2022/01/18 12:37:07;;;;;;;57.22;28.55;;;6.00;99.90;;;;;;5100950;28;20040;-65
2022/01/18 12:40:10;;;;;;;59.60;28.70;;;6.10;99.90;;;;;;5113001;28;20036;-66
2022/01/18 12:45:12;;;;;;;57.25;27.45;;;6.10;99.90;;;;;;5115535;27;20072;-66
2022/01/18 12:47:54;;;;;;;61.65;29.20;;;6.10;99.90;;;;;;5113247;28;20027;-65
2022/01/18 12:50:24;;;;;;;68.55;32.50;;;6.20;99.90;;;;;;5112888;28;20110;-65
2022/01/18 12:52:59;;;;;;;69.88;36.08;;;6.20;99.90;;;;;;5094821;28;20058;-64
2022/01/18 12:55:55;;;;;;;75.53;35.15;;;6.30;99.90;;;;;;5094663;28;20031;-65
2022/01/18 12:58:42;;;;;;;62.13;31.38;;;6.40;99.90;;;;;;5112988;28;20038;-65
2022/01/18 13:01:17;;;;;;;68.60;30.27;;;6.40;99.90;;;;;;5112864;28;20177;-65
2022/01/18 13:03:47;;;;;;;65.22;31.02;;;6.70;99.90;;;;;;5111212;28;20086;-65
2022/01/18 13:06:19;;;;;;;68.35;34.03;;;6.70;99.90;;;;;;5090554;28;20032;-66
2022/01/18 13:08:51;;;;;;;73.47;34.05;;;6.80;99.90;;;;;;5105349;28;20534;-65
2022/01/18 13:11:28;;;;;;;67.60;33.50;;;7.00;99.90;;;;;;5109768;28;20036;-66
2022/01/18 13:14:01;;;;;;;67.82;34.53;;;7.00;99.90;;;;;;5094537;28;20386;-65
2022/01/18 13:27:23;;;;;;;76.88;37.10;;;6.80;99.90;;;;;;5116944;28;20558;-67
2022/01/18 13:29:52;;;;;;;93.13;39.90;;;6.80;99.90;;;;;;5108055;28;20034;-65
2022/01/18 13:32:21;;;;;;;84.97;39.00;;;6.90;99.90;;;;;;5096403;28;20028;-65
2022/01/18 13:34:55;;;;;;;82.03;41.00;;;6.80;99.90;;;;;;5096298;28;20039;-65
2022/01/18 13:37:26;;;;;;;86.53;49.45;;;6.90;99.90;;;;;;5096235;28;20056;-65
2022/01/18 13:39:58;;;;;;;84.53;49.03;;;7.10;99.90;;;;;;5096024;28;20124;-66
2022/01/18 13:42:31;;;;;;;93.43;51.80;;;6.90;99.90;;;;;;5096196;28;20051;-64
2022/01/18 13:45:16;;;;;;;115.45;62.35;;;6.80;99.90;;;;;;5096230;28;20024;-65
2022/01/18 13:47:50;;;;;;;127.50;73.93;;;6.70;99.90;;;;;;5115327;28;20040;-65
2022/01/18 13:50:40;;;;;;;141.27;80.20;;;6.70;99.90;;;;;;5116464;28;20039;-66
2022/01/18 13:53:11;;;;;;;134.13;76.90;;;6.70;99.90;;;;;;5116387;28;20061;-65
2022/01/18 13:55:43;;;;;;;146.18;85.13;;;6.70;99.90;;;;;;5098029;28;20043;-66
2022/01/18 13:58:09;;;;;;;162.80;94.97;;;6.60;99.90;;;;;;5098099;28;20107;-64
2022/01/18 14:00:35;;;;;;;168.82;96.15;;;6.70;99.90;;;;;;5116098;28;20035;-64
2022/01/18 14:03:01;;;;;;;174.15;99.55;;;6.70;99.90;;;;;;5097947;28;20031;-66
2022/01/18 14:05:28;;;;;;;174.57;103.65;;;6.70;99.90;;;;;;5116175;28;20028;-66
2022/01/18 14:08:10;;;;;;;179.73;106.20;;;6.80;99.90;;;;;;5116072;28;20055;-64
2022/01/18 14:10:37;;;;;;;183.90;106.82;;;6.90;99.90;;;;;;5116020;28;20035;-66
2022/01/18 14:13:03;;;;;;;175.05;102.53;;;6.80;99.90;;;;;;5116028;28;20413;-63
2022/01/18 14:15:43;;;;;;;183.38;107.63;;;6.60;99.90;;;;;;5115784;28;20042;-65
2022/01/18 14:18:10;;;;;;;212.68;127.10;;;6.50;99.90;;;;;;5095731;28;20450;-64
2022/01/18 14:20:37;;;;;;;206.70;128.85;;;6.40;99.90;;;;;;5095307;28;20036;-65
2022/01/18 14:23:04;;;;;;;212.98;128.60;;;6.30;99.90;;;;;;5077409;28;20374;-65
2022/01/18 14:25:31;;;;;;;227.10;131.13;;;6.30;99.90;;;;;;5102324;28;20141;-65